Time;durP1;ratioP1;P1;durP2;ratioP2;P2;SDS_P1;SDS_P2;PMS_P1;PMS_P2;Temp;Humidity;BMP_temperature;BMP_pressure;BME280_temperature;BME280_humidity;BME280_pressure;Samples;Min_cycle;Max_cycle;Signal;HPM_P1;HPM_P2
2022/09/02 00:01:21;;;;;;;8.43;4.80;;;;;;;;;;5090578;28;20196;-83
2022/09/02 00:03:49;;;;;;;5.90;4.73;;;;;;;;;;5090713;28;20200;-83
2022/09/02 00:06:17;;;;;;;5.67;5.17;;;;;;;;;;5090800;28;20201;-83
2022/09/02 00:08:44;;;;;;;5.20;4.70;;;;;;;;;;5090736;28;20567;-82
2022/09/02 00:11:15;;;;;;;5.20;4.73;;;;;;;;;;5090431;28;20228;-82
2022/09/02 00:13:42;;;;;;;5.37;4.87;;;;;;;;;;5090403;28;20589;-82
2022/09/02 00:16:10;;;;;;;5.70;5.10;;;;;;;;;;5090552;28;20204;-82
2022/09/02 00:18:38;;;;;;;5.10;4.70;;;;;;;;;;5090665;28;20307;-82
2022/09/02 00:21:06;;;;;;;5.37;4.87;;;;;;;;;;5090254;28;20738;-82
2022/09/02 00:23:33;;;;;;;5.37;4.87;;;;;;;;;;5090458;28;20728;-82
2022/09/02 00:26:00;;;;;;;5.43;4.97;;;;;;;;;;5090003;28;20196;-82
2022/09/02 00:28:27;;;;;;;5.33;4.40;;;;;;;;;;5090218;28;20200;-82
2022/09/02 00:30:54;;;;;;;6.43;5.27;;;;;;;;;;5090236;28;20236;-82
2022/09/02 00:33:21;;;;;;;6.60;5.57;;;;;;;;;;5090579;28;20273;-82
2022/09/02 00:35:48;;;;;;;6.20;5.70;;;;;;;;;;5090073;28;20211;-82
2022/09/02 00:38:16;;;;;;;7.20;5.40;;;;;;;;;;5090160;28;20211;-82
2022/09/02 00:40:45;;;;;;;6.10;5.50;;;;;;;;;;5089940;28;20207;-82
2022/09/02 00:43:12;;;;;;;7.80;5.33;;;;;;;;;;5090512;28;20606;-82
2022/09/02 00:45:39;;;;;;;5.57;5.07;;;;;;;;;;5089871;28;20683;-82
2022/09/02 00:48:06;;;;;;;6.33;5.73;;;;;;;;;;5090216;28;20731;-82
2022/09/02 00:50:36;;;;;;;5.27;4.80;;;;;;;;;;5090064;28;20224;-83
2022/09/02 00:53:05;;;;;;;5.77;5.13;;;;;;;;;;5090081;28;20200;-82
2022/09/02 00:55:36;;;;;;;5.77;5.27;;;;;;;;;;5089815;28;20207;-82
2022/09/02 00:58:07;;;;;;;6.00;5.40;;;;;;;;;;5090255;28;20200;-82
2022/09/02 01:00:36;;;;;;;9.83;5.63;;;;;;;;;;5090139;28;20212;-84
2022/09/02 01:03:07;;;;;;;6.73;5.27;;;;;;;;;;5090189;28;20228;-82
2022/09/02 01:05:37;;;;;;;5.57;5.10;;;;;;;;;;5092320;28;20722;-83
2022/09/02 01:08:06;;;;;;;6.03;5.53;;;;;;;;;;5093956;28;20671;-82
2022/09/02 01:10:35;;;;;;;5.90;5.40;;;;;;;;;;5093792;28;20333;-82
2022/09/02 01:13:05;;;;;;;5.33;4.37;;;;;;;;;;5093730;28;20214;-82
2022/09/02 01:15:35;;;;;;;5.63;5.03;;;;;;;;;;5093492;28;20196;-82
2022/09/02 01:18:02;;;;;;;5.40;5.00;;;;;;;;;;5079910;28;20219;-82
2022/09/02 01:20:29;;;;;;;10.20;5.43;;;;;;;;;;5093909;28;20628;-83
2022/09/02 01:22:58;;;;;;;5.40;4.87;;;;;;;;;;5108141;28;20200;-82
2022/09/02 01:25:28;;;;;;;8.00;5.67;;;;;;;;;;5093419;28;20281;-82
2022/09/02 01:27:59;;;;;;;6.00;5.20;;;;;;;;;;5093578;28;20232;-83
2022/09/02 01:30:26;;;;;;;5.23;4.83;;;;;;;;;;5093135;28;20231;-83
2022/09/02 01:32:53;;;;;;;6.73;5.07;;;;;;;;;;5093166;28;21705;-84
2022/09/02 01:35:20;;;;;;;5.50;5.00;;;;;;;;;;5093844;28;20292;-89
2022/09/02 01:37:47;;;;;;;6.43;5.17;;;;;;;;;;5093429;28;20208;-89
2022/09/02 01:40:17;;;;;;;5.47;5.03;;;;;;;;;;5093568;28;20678;-86
2022/09/02 01:42:47;;;;;;;5.10;4.63;;;;;;;;;;5094045;28;20204;-87
2022/09/02 01:45:15;;;;;;;5.37;4.97;;;;;;;;;;5078988;28;20259;-87
2022/09/02 01:47:42;;;;;;;5.50;4.63;;;;;;;;;;5093685;28;20208;-87
2022/09/02 01:50:10;;;;;;;4.87;4.47;;;;;;;;;;5093641;28;20242;-88
2022/09/02 01:52:37;;;;;;;5.70;4.47;;;;;;;;;;5093665;28;20230;-87
2022/09/02 01:55:05;;;;;;;5.27;4.80;;;;;;;;;;5094000;28;20211;-88
2022/09/02 01:57:33;;;;;;;7.50;5.40;;;;;;;;;;5093647;28;20238;-86
2022/09/02 02:00:02;;;;;;;7.43;5.00;;;;;;;;;;5059208;28;20212;-86
2022/09/02 02:02:29;;;;;;;4.60;4.20;;;;;;;;;;5094020;28;20287;-87
2022/09/02 02:04:56;;;;;;;5.33;4.90;;;;;;;;;;5093517;28;20710;-85
2022/09/02 02:07:24;;;;;;;4.97;4.57;;;;;;;;;;5076228;28;20204;-88
2022/09/02 02:09:52;;;;;;;4.90;4.50;;;;;;;;;;5076376;28;20228;-85
2022/09/02 02:12:19;;;;;;;4.57;4.13;;;;;;;;;;5075815;28;20310;-86
2022/09/02 02:14:48;;;;;;;4.73;4.33;;;;;;;;;;5093598;28;20196;-86
2022/09/02 02:17:15;;;;;;;4.67;4.10;;;;;;;;;;5075081;28;20643;-87
2022/09/02 02:19:42;;;;;;;6.20;4.67;;;;;;;;;;5079371;28;20253;-86
2022/09/02 02:22:09;;;;;;;3.07;2.77;;;;;;;;;;5094153;28;20295;-88
2022/09/02 02:24:37;;;;;;;2.53;2.33;;;;;;;;;;5109208;28;20204;-87
2022/09/02 02:27:04;;;;;;;2.97;2.70;;;;;;;;;;5093530;28;20235;-88
2022/09/02 02:29:31;;;;;;;2.40;2.20;;;;;;;;;;5093263;28;20236;-89
2022/09/02 02:32:00;;;;;;;2.20;2.00;;;;;;;;;;5093553;28;20235;-87
2022/09/02 02:34:26;;;;;;;1.50;1.40;;;;;;;;;;5093298;28;20204;-90
2022/09/02 02:36:53;;;;;;;1.83;1.73;;;;;;;;;;5093182;28;20690;-88
2022/09/02 02:39:21;;;;;;;1.33;1.30;;;;;;;;;;5075955;28;20211;-87
2022/09/02 02:41:48;;;;;;;0.83;0.83;;;;;;;;;;5076123;28;20204;-88
2022/09/02 02:44:15;;;;;;;0.77;0.77;;;;;;;;;;5075692;28;20585;-89
2022/09/02 02:46:42;;;;;;;0.60;0.60;;;;;;;;;;5092938;28;20196;-88
2022/09/02 02:49:10;;;;;;;0.63;0.63;;;;;;;;;;5104068;28;20605;-89
2022/09/02 02:51:37;;;;;;;0.53;0.53;;;;;;;;;;5095474;28;20693;-88
2022/09/02 02:54:05;;;;;;;0.50;0.47;;;;;;;;;;5093096;28;20296;-90
2022/09/02 02:56:32;;;;;;;0.80;0.80;;;;;;;;;;5092937;28;20590;-89
2022/09/02 02:59:02;;;;;;;0.37;0.37;;;;;;;;;;5093044;28;20613;-88
2022/09/02 03:01:30;;;;;;;0.80;0.53;;;;;;;;;;5092382;28;20284;-88
2022/09/02 03:03:57;;;;;;;0.30;0.30;;;;;;;;;;5092472;28;20201;-87
2022/09/02 03:06:26;;;;;;;0.17;0.17;;;;;;;;;;5092550;28;20196;-88
2022/09/02 03:08:53;;;;;;;0.10;0.10;;;;;;;;;;5074538;28;20213;-87
2022/09/02 03:11:22;;;;;;;0.50;0.50;;;;;;;;;;5092656;28;20646;-89
2022/09/02 03:13:49;;;;;;;0.90;0.90;;;;;;;;;;5088732;28;20214;-87
2022/09/02 03:16:18;;;;;;;0.93;0.93;;;;;;;;;;5092376;28;20647;-87
2022/09/02 03:18:45;;;;;;;0.33;0.33;;;;;;;;;;5092524;28;20234;-87
2022/09/02 03:21:14;;;;;;;0.27;0.27;;;;;;;;;;5073878;28;20201;-89
2022/09/02 03:23:43;;;;;;;0.47;0.47;;;;;;;;;;5092370;28;20212;-86
2022/09/02 03:26:11;;;;;;;0.40;0.40;;;;;;;;;;5091783;28;20789;-87
2022/09/02 03:28:38;;;;;;;0.53;0.53;;;;;;;;;;5091878;28;20687;-88
2022/09/02 03:31:06;;;;;;;0.50;0.50;;;;;;;;;;5091655;28;20247;-88
2022/09/02 03:33:34;;;;;;;0.30;0.30;;;;;;;;;;5091941;28;20214;-86
2022/09/02 03:36:00;;;;;;;0.37;0.37;;;;;;;;;;5091681;28;20200;-86
2022/09/02 03:38:27;;;;;;;0.60;0.60;;;;;;;;;;5092148;28;20215;-87
2022/09/02 03:40:56;;;;;;;0.00;0.00;;;;;;;;;;5091646;28;20211;-88
2022/09/02 03:43:22;;;;;;;0.20;0.20;;;;;;;;;;5091717;28;20205;-88
2022/09/02 03:45:49;;;;;;;0.37;0.37;;;;;;;;;;5092323;28;20204;-88
2022/09/02 03:48:16;;;;;;;0.43;0.43;;;;;;;;;;5057306;28;20261;-88
2022/09/02 03:50:46;;;;;;;0.53;0.50;;;;;;;;;;5092086;28;20580;-85
2022/09/02 03:53:13;;;;;;;0.13;0.13;;;;;;;;;;5091283;28;20207;-82
2022/09/02 03:55:40;;;;;;;0.33;0.33;;;;;;;;;;5091161;28;20627;-82
2022/09/02 03:58:08;;;;;;;0.23;0.23;;;;;;;;;;5091371;28;20858;-81
2022/09/02 04:00:36;;;;;;;0.47;0.33;;;;;;;;;;5091637;28;20204;-81
2022/09/02 04:03:03;;;;;;;0.60;0.60;;;;;;;;;;5090873;28;20211;-81
2022/09/02 04:05:30;;;;;;;0.27;0.27;;;;;;;;;;5091127;28;20207;-82
2022/09/02 04:07:56;;;;;;;0.00;0.00;;;;;;;;;;5091173;28;20744;-82
2022/09/02 04:10:23;;;;;;;0.30;0.30;;;;;;;;;;5090900;28;20709;-81
2022/09/02 04:12:51;;;;;;;0.57;0.40;;;;;;;;;;5088086;28;20221;-82
2022/09/02 04:15:20;;;;;;;0.20;0.20;;;;;;;;;;5079884;28;20204;-87
2022/09/02 04:17:47;;;;;;;0.40;0.40;;;;;;;;;;5091412;28;20679;-87
2022/09/02 04:20:16;;;;;;;0.30;0.30;;;;;;;;;;5091040;28;20208;-88
2022/09/02 04:22:44;;;;;;;0.20;0.20;;;;;;;;;;5091135;28;20607;-87
2022/09/02 04:25:11;;;;;;;0.40;0.40;;;;;;;;;;5090590;28;20208;-87
2022/09/02 04:27:38;;;;;;;0.50;0.50;;;;;;;;;;5091228;28;20204;-86
2022/09/02 04:30:06;;;;;;;0.30;0.30;;;;;;;;;;5090408;28;20219;-86
2022/09/02 04:32:35;;;;;;;0.50;0.40;;;;;;;;;;5091176;28;20216;-86
2022/09/02 04:35:03;;;;;;;0.33;0.33;;;;;;;;;;5091028;28;20287;-86
2022/09/02 04:37:32;;;;;;;0.20;0.20;;;;;;;;;;5073174;28;20219;-86
2022/09/02 04:39:58;;;;;;;0.77;0.50;;;;;;;;;;5093104;28;20316;-86
2022/09/02 04:42:25;;;;;;;0.70;0.70;;;;;;;;;;5094962;28;20260;-85
2022/09/02 04:44:53;;;;;;;0.10;0.10;;;;;;;;;;5094562;28;20665;-87
2022/09/02 04:47:20;;;;;;;0.40;0.20;;;;;;;;;;5094357;28;20211;-86
2022/09/02 04:49:50;;;;;;;0.07;0.07;;;;;;;;;;5076440;28;20200;-85
2022/09/02 04:52:17;;;;;;;0.30;0.30;;;;;;;;;;5094556;28;20228;-86
2022/09/02 04:54:44;;;;;;;0.07;0.07;;;;;;;;;;5094563;28;20196;-86
2022/09/02 04:57:12;;;;;;;0.13;0.13;;;;;;;;;;5094291;28;20229;-86
2022/09/02 04:59:38;;;;;;;0.40;0.40;;;;;;;;;;5077017;28;20199;-88
2022/09/02 05:02:07;;;;;;;0.23;0.23;;;;;;;;;;5094073;28;20211;-86
2022/09/02 05:04:34;;;;;;;0.27;0.27;;;;;;;;;;5094658;28;20234;-87
2022/09/02 05:07:03;;;;;;;0.60;0.60;;;;;;;;;;5094484;28;20231;-86
2022/09/02 05:09:30;;;;;;;0.67;0.67;;;;;;;;;;5075969;28;20200;-87
2022/09/02 05:11:59;;;;;;;0.10;0.10;;;;;;;;;;5076573;28;20663;-87
2022/09/02 05:14:27;;;;;;;0.10;0.10;;;;;;;;;;5075111;28;20204;-86
2022/09/02 05:16:54;;;;;;;0.17;0.17;;;;;;;;;;5094165;28;20230;-85
2022/09/02 05:19:22;;;;;;;0.20;0.20;;;;;;;;;;5093464;28;20277;-84
2022/09/02 05:21:50;;;;;;;0.27;0.27;;;;;;;;;;5089407;28;20200;-85
2022/09/02 05:24:18;;;;;;;0.43;0.43;;;;;;;;;;5092885;28;20204;-87
2022/09/02 05:26:45;;;;;;;0.33;0.33;;;;;;;;;;5094114;28;20685;-86
2022/09/02 05:29:13;;;;;;;0.40;0.40;;;;;;;;;;5092790;28;20239;-86
2022/09/02 05:31:40;;;;;;;0.20;0.20;;;;;;;;;;5093018;28;20220;-87
2022/09/02 05:34:08;;;;;;;0.40;0.30;;;;;;;;;;5093277;28;20571;-86
2022/09/02 05:36:35;;;;;;;0.47;0.47;;;;;;;;;;5086939;28;20215;-85
2022/09/02 05:39:04;;;;;;;0.50;0.50;;;;;;;;;;5093467;28;20218;-85
2022/09/02 05:41:32;;;;;;;0.40;0.40;;;;;;;;;;5098220;28;20752;-85
2022/09/02 05:44:01;;;;;;;0.20;0.20;;;;;;;;;;5092308;28;20196;-85
2022/09/02 05:46:28;;;;;;;0.33;0.33;;;;;;;;;;5092636;28;20201;-84
2022/09/02 05:49:08;;;;;;;1.10;1.10;;;;;;;;;;5103816;28;20257;-85
2022/09/02 05:51:40;;;;;;;0.63;0.63;;;;;;;;;;5093197;28;20199;-87
2022/09/02 05:54:09;;;;;;;0.47;0.47;;;;;;;;;;5074498;28;20196;-89
2022/09/02 05:56:40;;;;;;;0.20;0.20;;;;;;;;;;5075860;28;20209;-86
2022/09/02 05:59:07;;;;;;;0.57;0.57;;;;;;;;;;5093017;28;20598;-84
2022/09/02 06:01:35;;;;;;;0.40;0.40;;;;;;;;;;5092875;28;20293;-84
2022/09/02 06:04:02;;;;;;;0.20;0.20;;;;;;;;;;5074581;28;20203;-85
2022/09/02 06:06:29;;;;;;;0.30;0.30;;;;;;;;;;5092492;28;20208;-83
2022/09/02 06:08:56;;;;;;;0.60;0.60;;;;;;;;;;5089038;28;20201;-81
2022/09/02 06:11:23;;;;;;;0.43;0.43;;;;;;;;;;5092030;28;20200;-82
2022/09/02 06:13:54;;;;;;;1.07;1.07;;;;;;;;;;5092290;28;20771;-81
2022/09/02 06:16:22;;;;;;;0.70;0.70;;;;;;;;;;5091467;28;20204;-80
2022/09/02 06:18:49;;;;;;;0.60;0.60;;;;;;;;;;5092490;28;20595;-81
2022/09/02 06:21:16;;;;;;;0.27;0.27;;;;;;;;;;5091631;28;20200;-80
2022/09/02 06:23:43;;;;;;;0.87;0.87;;;;;;;;;;5091634;28;20203;-80
2022/09/02 06:26:12;;;;;;;2.77;0.80;;;;;;;;;;5092579;28;20283;-80
2022/09/02 06:28:39;;;;;;;0.30;0.30;;;;;;;;;;5090210;28;20203;-80
2022/09/02 06:31:09;;;;;;;0.37;0.37;;;;;;;;;;5071755;28;20224;-82
2022/09/02 06:33:36;;;;;;;0.37;0.37;;;;;;;;;;5083238;28;20281;-81
2022/09/02 06:36:06;;;;;;;0.90;0.70;;;;;;;;;;5091761;28;20196;-80
2022/09/02 06:38:36;;;;;;;0.20;0.20;;;;;;;;;;5090539;28;20196;-81
2022/09/02 06:41:03;;;;;;;0.27;0.27;;;;;;;;;;5085942;28;20616;-81
2022/09/02 06:43:30;;;;;;;0.33;0.33;;;;;;;;;;5090835;28;20211;-80
2022/09/02 06:45:57;;;;;;;0.10;0.10;;;;;;;;;;5090500;28;20591;-80
2022/09/02 06:48:25;;;;;;;0.30;0.30;;;;;;;;;;5090762;28;20273;-81
2022/09/02 06:50:54;;;;;;;0.30;0.30;;;;;;;;;;5091571;28;20212;-80
2022/09/02 06:53:21;;;;;;;0.40;0.40;;;;;;;;;;5091006;28;20220;-82
2022/09/02 06:55:48;;;;;;;0.23;0.23;;;;;;;;;;5090784;28;20212;-81
2022/09/02 06:58:16;;;;;;;0.37;0.37;;;;;;;;;;5087248;28;20266;-80
2022/09/02 07:00:44;;;;;;;0.43;0.20;;;;;;;;;;5073164;28;20209;-81
2022/09/02 07:06:02;;;;;;;0.63;0.63;;;;;;;;;;5091297;28;20767;-79
2022/09/02 07:08:29;;;;;;;0.33;0.33;;;;;;;;;;5091340;28;20295;-80
2022/09/02 07:10:56;;;;;;;0.30;0.30;;;;;;;;;;5091406;28;20196;-80
2022/09/02 07:13:23;;;;;;;0.50;0.50;;;;;;;;;;5089981;28;20239;-81
2022/09/02 07:15:49;;;;;;;0.70;0.70;;;;;;;;;;5090270;28;20598;-80
2022/09/02 07:18:16;;;;;;;0.50;0.50;;;;;;;;;;5091297;28;20200;-82
2022/09/02 07:20:46;;;;;;;2.30;1.23;;;;;;;;;;5086928;28;20239;-82
2022/09/02 07:23:15;;;;;;;1.73;1.13;;;;;;;;;;5058782;28;20204;-80
2022/09/02 07:25:42;;;;;;;0.33;0.33;;;;;;;;;;5090852;28;20204;-80
2022/09/02 07:28:10;;;;;;;0.70;0.70;;;;;;;;;;5095866;28;20196;-81
2022/09/02 07:30:38;;;;;;;0.47;0.47;;;;;;;;;;5099811;28;20239;-82
2022/09/02 07:33:05;;;;;;;0.50;0.50;;;;;;;;;;5090620;28;20216;-80
2022/09/02 07:35:32;;;;;;;0.60;0.60;;;;;;;;;;5090548;28;20582;-81
2022/09/02 07:37:59;;;;;;;0.43;0.43;;;;;;;;;;5087702;28;20318;-81
2022/09/02 07:40:28;;;;;;;0.70;0.70;;;;;;;;;;5079325;28;20201;-80
2022/09/02 07:42:55;;;;;;;0.50;0.50;;;;;;;;;;5090717;28;20204;-81
2022/09/02 07:45:22;;;;;;;0.97;0.97;;;;;;;;;;5090514;28;20215;-80
2022/09/02 07:47:49;;;;;;;0.23;0.23;;;;;;;;;;5090776;28;20204;-81
2022/09/02 07:50:17;;;;;;;0.67;0.67;;;;;;;;;;5084086;28;20675;-80
2022/09/02 07:52:44;;;;;;;0.70;0.70;;;;;;;;;;5091063;28;20216;-81
2022/09/02 07:55:11;;;;;;;1.17;1.07;;;;;;;;;;5089945;28;20207;-81
2022/09/02 07:57:39;;;;;;;1.03;0.70;;;;;;;;;;5090867;28;20215;-89
2022/09/02 08:00:08;;;;;;;0.57;0.57;;;;;;;;;;5088306;28;20228;-86
2022/09/02 08:02:34;;;;;;;0.90;0.77;;;;;;;;;;5090720;28;20236;-86
2022/09/02 08:05:03;;;;;;;0.67;0.67;;;;;;;;;;5090109;28;20204;-85
2022/09/02 08:07:30;;;;;;;0.80;0.80;;;;;;;;;;5056334;28;20200;-85
2022/09/02 08:09:59;;;;;;;1.13;1.13;;;;;;;;;;5071998;28;20233;-85
2022/09/02 08:12:27;;;;;;;0.87;0.87;;;;;;;;;;5090146;28;20306;-85
2022/09/02 08:14:56;;;;;;;0.50;0.50;;;;;;;;;;5089833;28;20207;-85
2022/09/02 08:17:23;;;;;;;0.53;0.53;;;;;;;;;;5076089;28;20261;-85
2022/09/02 08:19:50;;;;;;;0.53;0.53;;;;;;;;;;5090543;28;20215;-85
2022/09/02 08:22:18;;;;;;;1.87;1.50;;;;;;;;;;5072349;28;20766;-85
2022/09/02 08:24:45;;;;;;;0.50;0.50;;;;;;;;;;5072145;28;20196;-84
2022/09/02 08:27:12;;;;;;;1.23;1.13;;;;;;;;;;5072137;28;20277;-86
2022/09/02 08:29:39;;;;;;;0.90;0.90;;;;;;;;;;5038949;28;20285;-84
2022/09/02 08:32:08;;;;;;;1.63;1.53;;;;;;;;;;5070940;28;20537;-88
2022/09/02 08:34:35;;;;;;;0.50;0.50;;;;;;;;;;5071912;28;20280;-84
2022/09/02 08:37:03;;;;;;;0.20;0.20;;;;;;;;;;5072334;28;20413;-85
2022/09/02 08:39:30;;;;;;;1.23;1.13;;;;;;;;;;5069502;28;20304;-84
2022/09/02 08:42:03;;;;;;;1.30;1.20;;;;;;;;;;5072026;28;20197;-84
2022/09/02 08:44:30;;;;;;;0.93;0.93;;;;;;;;;;5090061;28;20200;-85
2022/09/02 08:46:59;;;;;;;0.40;0.40;;;;;;;;;;5071772;28;20200;-85
2022/09/02 08:49:31;;;;;;;0.83;0.83;;;;;;;;;;5072697;28;20287;-85
2022/09/02 08:51:59;;;;;;;0.87;0.87;;;;;;;;;;5090039;28;20200;-84
2022/09/02 08:54:31;;;;;;;0.87;0.83;;;;;;;;;;5090067;28;20228;-84
2022/09/02 08:56:59;;;;;;;0.57;0.57;;;;;;;;;;5089283;28;20246;-85
2022/09/02 08:59:30;;;;;;;0.70;0.70;;;;;;;;;;5071633;28;20216;-84
2022/09/02 09:02:03;;;;;;;0.67;0.67;;;;;;;;;;5088951;28;20207;-85
2022/09/02 09:05:20;;;;;;;1.03;1.03;;;;;;;;;;5076142;28;20250;-84
2022/09/02 09:08:01;;;;;;;0.50;0.50;;;;;;;;;;5089469;28;20197;-85
2022/09/02 09:10:36;;;;;;;0.77;0.77;;;;;;;;;;5090123;28;20207;-84
2022/09/02 09:13:26;;;;;;;0.63;0.63;;;;;;;;;;5077240;28;20230;-85
2022/09/02 09:15:57;;;;;;;1.37;1.27;;;;;;;;;;5087866;28;20212;-81
2022/09/02 09:18:33;;;;;;;0.40;0.40;;;;;;;;;;5089481;28;20207;-81
2022/09/02 09:21:00;;;;;;;0.40;0.40;;;;;;;;;;5089325;28;20196;-81
2022/09/02 09:23:32;;;;;;;1.73;1.00;;;;;;;;;;5089540;28;20197;-82
2022/09/02 09:26:05;;;;;;;0.60;0.60;;;;;;;;;;5090811;28;20717;-80
2022/09/02 09:28:39;;;;;;;0.77;0.77;;;;;;;;;;5093642;28;20204;-80
2022/09/02 09:31:08;;;;;;;0.57;0.57;;;;;;;;;;5096257;28;20228;-81
2022/09/02 09:33:35;;;;;;;1.70;1.37;;;;;;;;;;5104165;28;20232;-81
2022/09/02 09:36:04;;;;;;;0.67;0.67;;;;;;;;;;5092249;28;20208;-82
2022/09/02 09:38:37;;;;;;;1.23;1.23;;;;;;;;;;5093148;28;20196;-81
2022/09/02 09:41:12;;;;;;;1.00;1.00;;;;;;;;;;5093173;28;20602;-81
2022/09/02 09:43:39;;;;;;;0.80;0.80;;;;;;;;;;5092847;28;20718;-81
2022/09/02 09:46:21;;;;;;;0.50;0.50;;;;;;;;;;5092793;28;20690;-80
2022/09/02 09:48:50;;;;;;;1.70;1.60;;;;;;;;;;5092599;28;20204;-80
2022/09/02 09:51:17;;;;;;;1.27;1.17;;;;;;;;;;5092928;28;20200;-80
2022/09/02 09:53:46;;;;;;;0.93;0.93;;;;;;;;;;5092730;28;20244;-81
2022/09/02 09:56:31;;;;;;;0.85;0.85;;;;;;;;;;5093213;28;20208;-80
2022/09/02 09:58:58;;;;;;;1.10;1.05;;;;;;;;;;5092482;28;20190;-81
2022/09/02 10:01:26;;;;;;;0.90;0.90;;;;;;;;;;5092572;28;20564;-81
2022/09/02 10:03:55;;;;;;;0.80;0.80;;;;;;;;;;5092923;28;20213;-81
2022/09/02 10:06:24;;;;;;;0.88;0.88;;;;;;;;;;5093035;28;20606;-81
2022/09/02 10:08:54;;;;;;;0.80;0.80;;;;;;;;;;5093081;28;20210;-80
2022/09/02 10:11:24;;;;;;;0.68;0.68;;;;;;;;;;5092298;28;20200;-80
2022/09/02 10:13:51;;;;;;;0.70;0.70;;;;;;;;;;5092594;28;20227;-81
2022/09/02 10:16:29;;;;;;;0.97;0.97;;;;;;;;;;5089797;28;20208;-82
2022/09/02 10:19:00;;;;;;;0.73;0.73;;;;;;;;;;5081939;28;20196;-79
2022/09/02 10:21:41;;;;;;;0.90;0.90;;;;;;;;;;5091785;28;20674;-80
2022/09/02 10:24:15;;;;;;;0.67;0.67;;;;;;;;;;5089328;28;20970;-81
2022/09/02 10:26:46;;;;;;;0.70;0.70;;;;;;;;;;5089373;28;20674;-81
2022/09/02 10:29:36;;;;;;;0.70;0.70;;;;;;;;;;5078975;28;20228;-81
2022/09/02 10:32:43;;;;;;;0.75;0.75;;;;;;;;;;5091601;28;20635;-81
2022/09/02 10:35:17;;;;;;;0.85;0.85;;;;;;;;;;5087623;28;20791;-79
2022/09/02 10:37:59;;;;;;;0.68;0.68;;;;;;;;;;5091112;28;20208;-81
2022/09/02 10:40:36;;;;;;;0.60;0.60;;;;;;;;;;5090930;28;20189;-80
2022/09/02 10:43:05;;;;;;;0.80;0.80;;;;;;;;;;5091779;28;20224;-82
2022/09/02 10:45:36;;;;;;;1.20;1.20;;;;;;;;;;5091652;28;20636;-84
2022/09/02 10:48:15;;;;;;;1.25;1.25;;;;;;;;;;5087930;28;20204;-81
2022/09/02 10:50:46;;;;;;;1.40;1.08;;;;;;;;;;5090614;28;20204;-81
2022/09/02 10:53:24;;;;;;;1.00;1.00;;;;;;;;;;5077681;28;20197;-81
2022/09/02 10:55:57;;;;;;;0.80;0.80;;;;;;;;;;5088240;28;20210;-81
2022/09/02 10:58:37;;;;;;;0.93;0.93;;;;;;;;;;5091652;28;20212;-81
2022/09/02 11:01:04;;;;;;;0.52;0.52;;;;;;;;;;5091473;28;20290;-81
2022/09/02 11:03:34;;;;;;;0.75;0.75;;;;;;;;;;5091336;28;20208;-81
2022/09/02 11:06:07;;;;;;;0.82;0.82;;;;;;;;;;5091104;28;20208;-81
2022/09/02 11:08:38;;;;;;;1.08;1.08;;;;;;;;;;5091168;28;20204;-80
2022/09/02 11:11:11;;;;;;;1.50;1.40;;;;;;;;;;5091435;28;20231;-80
2022/09/02 11:13:40;;;;;;;1.00;1.00;;;;;;;;;;5091256;28;20666;-82
2022/09/02 11:16:14;;;;;;;1.15;1.15;;;;;;;;;;5091255;28;20200;-81
2022/09/02 11:18:46;;;;;;;0.93;0.93;;;;;;;;;;5077297;28;20199;-81
2022/09/02 11:21:25;;;;;;;1.05;1.05;;;;;;;;;;5091104;28;20196;-81
2022/09/02 11:23:55;;;;;;;1.48;1.10;;;;;;;;;;5078731;28;20204;-82
2022/09/02 11:26:28;;;;;;;1.60;1.15;;;;;;;;;;5105073;28;20244;-80
2022/09/02 11:28:59;;;;;;;0.80;0.80;;;;;;;;;;5077449;28;20203;-81
2022/09/02 11:31:30;;;;;;;1.08;1.08;;;;;;;;;;5091002;28;20197;-83
2022/09/02 11:34:00;;;;;;;1.27;1.20;;;;;;;;;;5076849;28;20591;-80
2022/09/02 11:36:28;;;;;;;0.93;0.93;;;;;;;;;;5090864;28;20201;-80
2022/09/02 11:38:57;;;;;;;1.73;1.63;;;;;;;;;;5091065;28;20224;-79
2022/09/02 11:41:48;;;;;;;0.70;0.70;;;;;;;;;;5072189;28;20214;-79
2022/09/02 11:44:31;;;;;;;1.45;1.35;;;;;;;;;;5077505;28;20657;-80
2022/09/02 11:47:30;;;;;;;0.98;0.98;;;;;;;;;;5090559;28;20207;-80
2022/09/02 11:50:09;;;;;;;1.60;1.50;;;;;;;;;;5090799;28;20212;-80
2022/09/02 11:52:51;;;;;;;1.85;1.27;;;;;;;;;;5090374;28;20235;-80
2022/09/02 11:55:22;;;;;;;1.38;1.38;;;;;;;;;;5090579;28;20224;-80
2022/09/02 11:57:56;;;;;;;1.20;1.17;;;;;;;;;;5090504;28;20200;-82
2022/09/02 12:00:30;;;;;;;3.05;1.73;;;;;;;;;;5090346;28;20199;-80
2022/09/02 12:03:15;;;;;;;1.30;1.20;;;;;;;;;;5090135;28;20590;-81
2022/09/02 12:06:09;;;;;;;1.30;1.30;;;;;;;;;;5090226;28;20204;-81
2022/09/02 12:09:10;;;;;;;0.93;0.93;;;;;;;;;;5090276;28;20227;-81
2022/09/02 12:11:44;;;;;;;1.08;0.77;;;;;;;;;;5079871;28;20200;-80
2022/09/02 12:15:06;;;;;;;1.30;1.30;;;;;;;;;;5090169;28;20216;-80
2022/09/02 12:17:49;;;;;;;0.95;0.95;;;;;;;;;;5089846;28;20679;-80
2022/09/02 12:20:49;;;;;;;0.75;0.75;;;;;;;;;;5045975;28;20204;-81
2022/09/02 12:23:48;;;;;;;0.65;0.65;;;;;;;;;;5060088;28;20675;-82
2022/09/02 12:26:16;;;;;;;1.10;1.10;;;;;;;;;;5079883;28;20204;-80
2022/09/02 12:28:45;;;;;;;0.75;0.75;;;;;;;;;;5090050;28;20667;-81
2022/09/02 12:31:17;;;;;;;0.57;0.57;;;;;;;;;;5089835;28;20714;-82
2022/09/02 12:33:47;;;;;;;1.00;1.00;;;;;;;;;;5089991;28;20231;-81
2022/09/02 12:36:46;;;;;;;0.93;0.93;;;;;;;;;;5085685;28;20211;-82
2022/09/02 12:39:45;;;;;;;1.08;1.08;;;;;;;;;;5086678;28;20207;-81
2022/09/02 12:42:20;;;;;;;1.58;1.30;;;;;;;;;;5089355;28;20200;-80
2022/09/02 12:44:50;;;;;;;1.05;1.05;;;;;;;;;;5084867;28;20674;-81
2022/09/02 12:47:30;;;;;;;3.72;1.55;;;;;;;;;;5089180;28;20203;-81
2022/09/02 12:50:03;;;;;;;0.90;0.90;;;;;;;;;;5089511;28;20210;-81
2022/09/02 12:52:42;;;;;;;1.95;1.85;;;;;;;;;;5089807;28;20207;-79
2022/09/02 12:55:15;;;;;;;0.70;0.70;;;;;;;;;;5090162;28;20239;-79
2022/09/02 12:57:44;;;;;;;0.57;0.57;;;;;;;;;;5089103;28;20207;-82
2022/09/02 13:00:14;;;;;;;1.00;1.00;;;;;;;;;;5075392;28;20205;-82
2022/09/02 13:02:54;;;;;;;1.48;1.38;;;;;;;;;;5075498;28;20208;-81
2022/09/02 13:05:27;;;;;;;1.13;1.13;;;;;;;;;;5088644;28;20671;-81
2022/09/02 13:08:40;;;;;;;1.50;1.45;;;;;;;;;;5093882;28;20196;-81
2022/09/02 13:11:38;;;;;;;0.73;0.73;;;;;;;;;;5091779;28;20200;-80
2022/09/02 13:14:22;;;;;;;0.98;0.98;;;;;;;;;;5090004;28;20227;-80
2022/09/02 13:17:00;;;;;;;0.63;0.63;;;;;;;;;;5093693;28;20213;-80
2022/09/02 13:19:55;;;;;;;0.70;0.70;;;;;;;;;;5092845;28;20192;-80
2022/09/02 13:22:42;;;;;;;0.70;0.70;;;;;;;;;;5093599;28;20679;-80
2022/09/02 13:25:28;;;;;;;0.68;0.68;;;;;;;;;;5092677;28;20208;-81
2022/09/02 13:28:30;;;;;;;0.88;0.88;;;;;;;;;;5093527;28;20200;-80
2022/09/02 13:31:06;;;;;;;1.10;1.10;;;;;;;;;;5063041;28;20314;-81
2022/09/02 13:33:33;;;;;;;0.60;0.60;;;;;;;;;;5093610;28;20274;-80
2022/09/02 13:36:02;;;;;;;0.95;0.95;;;;;;;;;;5092823;28;20224;-81
2022/09/02 13:38:31;;;;;;;1.20;1.20;;;;;;;;;;5092442;28;20204;-81
2022/09/02 13:40:58;;;;;;;0.85;0.85;;;;;;;;;;5091117;28;20626;-81
2022/09/02 13:43:26;;;;;;;0.98;0.98;;;;;;;;;;5092437;28;20254;-84
2022/09/02 13:45:55;;;;;;;0.70;0.70;;;;;;;;;;5092650;28;20211;-87
2022/09/02 13:49:13;;;;;;;0.63;0.63;;;;;;;;;;5074877;28;20200;-86
2022/09/02 13:51:44;;;;;;;1.23;1.20;;;;;;;;;;5087413;28;20201;-84
2022/09/02 13:54:11;;;;;;;0.50;0.50;;;;;;;;;;5082159;28;20235;-82
2022/09/02 13:56:39;;;;;;;0.70;0.70;;;;;;;;;;5093891;28;20567;-82
2022/09/02 13:59:06;;;;;;;0.67;0.67;;;;;;;;;;5093631;28;21210;-83
2022/09/02 14:01:38;;;;;;;0.93;0.93;;;;;;;;;;5075713;28;20211;-85
2022/09/02 14:07:31;;;;;;;0.70;0.70;;;;;;;;;;5094107;28;20720;-87
2022/09/02 14:09:59;;;;;;;1.00;1.00;;;;;;;;;;5094313;28;20251;-88
2022/09/02 14:12:27;;;;;;;0.87;0.87;;;;;;;;;;5079056;28;20212;-89
2022/09/02 14:14:55;;;;;;;1.00;1.00;;;;;;;;;;5074360;28;20260;-90
2022/09/02 14:17:23;;;;;;;3.30;1.23;;;;;;;;;;5074238;28;20223;-90
2022/09/02 14:19:51;;;;;;;0.97;0.97;;;;;;;;;;5074341;28;20209;-90
2022/09/02 14:22:28;;;;;;;1.07;1.07;;;;;;;;;;5056970;28;20209;-89
2022/09/02 14:24:56;;;;;;;0.80;0.80;;;;;;;;;;5063272;28;20277;-88
2022/09/02 14:27:24;;;;;;;0.80;0.80;;;;;;;;;;5076679;28;20705;-89
2022/09/02 14:29:54;;;;;;;0.83;0.83;;;;;;;;;;5086256;28;20240;-88
2022/09/02 14:32:23;;;;;;;0.73;0.73;;;;;;;;;;5082057;28;20205;-89
2022/09/02 14:35:09;;;;;;;0.87;0.87;;;;;;;;;;5075168;28;20223;-90
2022/09/02 14:37:50;;;;;;;0.93;0.93;;;;;;;;;;5077009;28;20401;-91
2022/09/02 14:40:18;;;;;;;1.33;1.23;;;;;;;;;;5093957;28;20215;-92
2022/09/02 14:42:50;;;;;;;0.97;0.97;;;;;;;;;;5086454;28;20197;-92
2022/09/02 14:45:26;;;;;;;0.60;0.60;;;;;;;;;;5080568;28;20212;-92
2022/09/02 14:47:54;;;;;;;0.70;0.70;;;;;;;;;;5094356;28;20204;-94
2022/09/02 14:50:24;;;;;;;1.07;1.07;;;;;;;;;;5069510;28;20295;-93
2022/09/02 14:52:58;;;;;;;0.80;0.80;;;;;;;;;;5073050;28;20691;-94
2022/09/02 14:55:46;;;;;;;4.00;1.33;;;;;;;;;;5074426;28;20747;-92
2022/09/02 14:58:13;;;;;;;0.77;0.70;;;;;;;;;;5094432;28;20208;-94
2022/09/02 15:00:41;;;;;;;0.93;0.93;;;;;;;;;;5093713;28;20204;-93
2022/09/02 15:03:09;;;;;;;0.80;0.80;;;;;;;;;;5059042;28;20204;-93
2022/09/02 15:05:38;;;;;;;0.80;0.80;;;;;;;;;;5092899;28;20246;-93
2022/09/02 15:08:07;;;;;;;0.87;0.87;;;;;;;;;;5077263;28;20641;-93
2022/09/02 15:10:37;;;;;;;0.93;0.93;;;;;;;;;;5095035;28;20212;-94
2022/09/02 15:23:09;;;;;;;0.90;0.90;;;;;;;;;;4836457;29;20229;-93